Time;durP1;ratioP1;P1;durP2;ratioP2;P2;SDS_P1;SDS_P2;PMS_P1;PMS_P2;Temp;Humidity;BMP_temperature;BMP_pressure;BME280_temperature;BME280_humidity;BME280_pressure;Samples;Min_cycle;Max_cycle;Signal;HPM_P1;HPM_P2
2023/06/28 00:02:04;;;;;;;6.53;6.27;;;21.30;44.90;;;;;;4853341;29;20576;-77
2023/06/28 00:04:32;;;;;;;7.00;6.60;;;21.30;44.20;;;;;;4852211;29;21070;-80
2023/06/28 00:07:00;;;;;;;6.97;6.67;;;21.30;43.80;;;;;;4850728;29;20483;-77
2023/06/28 00:09:28;;;;;;;6.23;6.03;;;21.30;43.40;;;;;;4846171;29;20735;-76
2023/06/28 00:11:56;;;;;;;7.27;7.07;;;21.20;43.40;;;;;;4850766;29;20641;-76
2023/06/28 00:14:25;;;;;;;6.50;6.30;;;21.20;44.10;;;;;;4854191;29;20464;-78
2023/06/28 00:16:53;;;;;;;7.10;6.80;;;21.20;43.30;;;;;;4851211;29;20490;-79
2023/06/28 00:19:26;;;;;;;7.03;6.83;;;21.20;43.50;;;;;;4850120;29;21835;-80
2023/06/28 00:21:55;;;;;;;7.23;6.83;;;21.20;43.80;;;;;;4854384;29;20473;-80
2023/06/28 00:24:23;;;;;;;7.40;7.10;;;21.20;44.20;;;;;;4851065;29;20475;-76
2023/06/28 00:26:51;;;;;;;7.30;7.00;;;21.20;43.40;;;;;;4851086;29;20865;-81
2023/06/28 00:29:19;;;;;;;7.43;6.93;;;21.20;42.40;;;;;;4853838;29;20455;-76
2023/06/28 00:31:48;;;;;;;7.20;6.90;;;21.20;42.80;;;;;;4850822;29;20472;-81
2023/06/28 00:34:17;;;;;;;6.90;6.70;;;21.10;42.20;;;;;;4852697;29;20478;-79
2023/06/28 00:36:45;;;;;;;7.30;6.90;;;21.10;41.90;;;;;;4850367;29;20509;-80
2023/06/28 00:39:13;;;;;;;7.23;6.93;;;21.10;42.80;;;;;;4850692;29;20474;-80
2023/06/28 00:41:41;;;;;;;7.90;7.43;;;21.10;42.70;;;;;;4854322;29;20458;-77
2023/06/28 00:44:09;;;;;;;7.30;7.10;;;21.10;42.10;;;;;;4853175;29;20455;-77
2023/06/28 00:46:37;;;;;;;6.80;6.60;;;21.10;43.50;;;;;;4848410;29;21318;-76
2023/06/28 00:49:06;;;;;;;6.50;6.20;;;21.10;43.50;;;;;;4851207;29;23178;-78
2023/06/28 00:51:35;;;;;;;6.93;6.50;;;21.10;44.30;;;;;;4850466;29;20648;-81
2023/06/28 00:54:04;;;;;;;6.70;6.50;;;21.10;44.10;;;;;;4850109;29;20452;-79
2023/06/28 00:56:32;;;;;;;7.07;6.67;;;21.10;44.10;;;;;;4852150;29;20490;-80
2023/06/28 00:59:00;;;;;;;7.50;7.07;;;21.00;43.30;;;;;;4852601;29;20467;-77
2023/06/28 01:01:29;;;;;;;8.00;7.20;;;21.00;43.50;;;;;;4852907;29;20467;-77
2023/06/28 01:03:57;;;;;;;7.13;6.70;;;21.00;43.20;;;;;;4850823;29;20469;-82
2023/06/28 01:06:31;;;;;;;7.27;6.90;;;21.00;43.70;;;;;;4851173;29;21281;-80
2023/06/28 01:08:59;;;;;;;6.70;6.50;;;21.00;43.70;;;;;;4850637;29;20529;-77
2023/06/28 01:11:27;;;;;;;6.80;6.50;;;21.00;43.20;;;;;;4854084;29;20468;-77
2023/06/28 01:13:55;;;;;;;7.40;7.10;;;20.90;42.30;;;;;;4852627;29;20472;-79
2023/06/28 01:16:24;;;;;;;6.83;6.53;;;20.90;42.80;;;;;;4853367;29;20508;-81
2023/06/28 01:18:52;;;;;;;6.97;6.67;;;20.90;44.70;;;;;;4849930;29;20467;-79
2023/06/28 01:21:23;;;;;;;7.17;6.63;;;20.90;44.20;;;;;;4848220;29;20468;-78
2023/06/28 01:23:52;;;;;;;6.13;5.93;;;20.90;43.70;;;;;;4854914;29;20459;-80
2023/06/28 01:26:21;;;;;;;7.70;7.20;;;20.90;45.90;;;;;;4851113;29;20501;-80
2023/06/28 01:28:50;;;;;;;7.13;6.70;;;20.90;45.00;;;;;;4852261;29;20455;-81
2023/06/28 01:31:18;;;;;;;7.77;7.47;;;20.90;45.10;;;;;;4849194;29;20494;-80
2023/06/28 01:33:48;;;;;;;7.80;7.40;;;20.80;44.30;;;;;;4857142;29;20468;-77
2023/06/28 01:36:16;;;;;;;7.53;7.23;;;20.80;44.20;;;;;;4852134;29;20654;-81
2023/06/28 01:38:45;;;;;;;7.70;7.20;;;20.80;43.70;;;;;;4849221;29;20521;-78
2023/06/28 01:41:15;;;;;;;7.27;6.50;;;20.80;42.80;;;;;;4848876;29;20474;-81
2023/06/28 01:43:43;;;;;;;7.43;7.10;;;20.80;43.50;;;;;;4850375;29;20466;-79
2023/06/28 01:46:12;;;;;;;7.90;7.60;;;20.70;43.10;;;;;;4853710;29;20496;-76
2023/06/28 01:48:40;;;;;;;7.80;7.50;;;20.60;43.20;;;;;;4850753;29;20471;-80
2023/06/28 01:51:09;;;;;;;7.50;7.30;;;20.60;43.90;;;;;;4854075;29;20462;-79
2023/06/28 01:53:37;;;;;;;7.07;6.87;;;20.60;44.90;;;;;;4851602;29;20467;-79
2023/06/28 01:56:05;;;;;;;7.83;7.40;;;20.70;44.60;;;;;;4847451;29;20479;-80
2023/06/28 01:58:34;;;;;;;7.67;7.30;;;20.60;45.10;;;;;;4852322;29;20501;-78
2023/06/28 02:01:03;;;;;;;7.77;7.37;;;20.60;47.10;;;;;;4854924;29;20469;-79
2023/06/28 02:03:31;;;;;;;8.30;7.77;;;20.50;49.30;;;;;;4851562;29;20598;-79
2023/06/28 02:05:59;;;;;;;8.00;7.70;;;20.60;50.90;;;;;;4857226;29;21017;-79
2023/06/28 02:08:28;;;;;;;8.20;7.80;;;20.50;52.50;;;;;;4856031;29;20451;-79
2023/06/28 02:10:56;;;;;;;8.30;8.00;;;20.40;55.10;;;;;;4854578;29;20459;-80
2023/06/28 02:13:24;;;;;;;8.23;7.83;;;20.40;56.60;;;;;;4856648;29;20482;-78
2023/06/28 02:15:54;;;;;;;8.57;8.23;;;20.40;58.00;;;;;;4850896;29;20487;-79
2023/06/28 02:18:25;;;;;;;8.53;8.13;;;20.30;59.70;;;;;;4847077;29;22386;-77
2023/06/28 02:20:53;;;;;;;9.33;8.90;;;20.30;60.60;;;;;;4851411;29;21231;-77
2023/06/28 02:23:21;;;;;;;8.50;8.20;;;20.30;60.00;;;;;;4848993;29;21240;-80
2023/06/28 02:25:49;;;;;;;9.27;8.77;;;20.30;82.10;;;;;;4852643;29;20496;-80
2023/06/28 02:28:19;;;;;;;8.87;8.47;;;20.20;66.90;;;;;;4847358;29;20460;-81
2023/06/28 02:30:47;;;;;;;10.00;9.40;;;20.20;67.70;;;;;;4847812;29;22172;-83
2023/06/28 02:33:18;;;;;;;8.03;7.83;;;20.10;62.90;;;;;;4849555;29;20459;-79
2023/06/28 02:35:46;;;;;;;8.40;8.10;;;20.10;66.10;;;;;;4865988;29;20507;-80
2023/06/28 02:38:14;;;;;;;9.30;8.90;;;20.10;67.00;;;;;;4856219;29;20490;-81
2023/06/28 02:40:42;;;;;;;9.13;8.73;;;20.10;68.50;;;;;;4852683;29;20471;-82
2023/06/28 02:43:10;;;;;;;9.10;8.80;;;20.10;66.20;;;;;;4856349;29;20585;-81
2023/06/28 02:45:38;;;;;;;9.20;8.90;;;20.10;64.30;;;;;;4853694;29;20495;-80
2023/06/28 02:48:06;;;;;;;8.90;8.70;;;20.00;66.70;;;;;;4856870;29;20456;-81
2023/06/28 02:50:36;;;;;;;8.73;8.43;;;20.00;68.10;;;;;;4852696;29;21094;-81
2023/06/28 02:53:04;;;;;;;8.93;8.50;;;20.00;68.70;;;;;;4868761;29;20476;-81
2023/06/28 02:55:32;;;;;;;9.07;8.67;;;20.00;70.30;;;;;;4852312;29;21892;-81
2023/06/28 02:58:01;;;;;;;8.50;8.20;;;20.00;72.40;;;;;;4852545;29;20575;-80
2023/06/28 03:00:29;;;;;;;8.60;8.30;;;19.90;68.90;;;;;;4854118;29;20468;-79
2023/06/28 03:02:57;;;;;;;9.00;8.30;;;20.00;68.40;;;;;;4851067;29;20483;-79
2023/06/28 03:05:25;;;;;;;8.90;8.60;;;19.90;69.90;;;;;;4851407;29;20491;-81
2023/06/28 03:07:55;;;;;;;9.47;8.80;;;20.00;67.60;;;;;;4851804;29;20459;-79
2023/06/28 03:10:23;;;;;;;9.13;8.80;;;19.90;70.10;;;;;;4850332;29;20562;-79
2023/06/28 03:12:51;;;;;;;9.60;9.10;;;19.90;67.90;;;;;;4851193;29;21064;-81
2023/06/28 03:15:20;;;;;;;8.57;8.37;;;19.80;65.10;;;;;;4856849;29;20816;-78
2023/06/28 03:17:48;;;;;;;8.90;8.40;;;19.90;66.00;;;;;;4852364;29;20472;-77
2023/06/28 03:20:17;;;;;;;9.30;8.80;;;19.80;64.40;;;;;;4853702;29;20459;-79
2023/06/28 03:22:45;;;;;;;8.80;8.33;;;19.80;63.10;;;;;;4852057;29;20460;-78
2023/06/28 03:25:15;;;;;;;8.80;8.40;;;19.80;64.20;;;;;;4850651;29;20770;-76
2023/06/28 03:27:43;;;;;;;8.53;8.10;;;19.90;65.90;;;;;;4853726;29;20880;-79
2023/06/28 03:30:12;;;;;;;9.20;8.90;;;19.90;64.10;;;;;;4854647;29;20457;-80
2023/06/28 03:32:40;;;;;;;9.30;8.90;;;19.80;64.30;;;;;;4853752;29;20853;-79
2023/06/28 03:35:09;;;;;;;9.47;8.77;;;19.90;63.20;;;;;;4851002;29;20522;-77
2023/06/28 03:37:37;;;;;;;8.60;8.30;;;19.80;62.10;;;;;;4852062;29;20506;-80
2023/06/28 03:40:07;;;;;;;9.43;8.87;;;19.80;65.20;;;;;;4851377;29;20835;-81
2023/06/28 03:42:37;;;;;;;9.10;8.70;;;19.90;64.30;;;;;;4850189;29;20482;-79
2023/06/28 03:45:06;;;;;;;8.70;8.30;;;19.80;64.00;;;;;;4857317;29;21008;-81
2023/06/28 03:47:34;;;;;;;9.80;9.23;;;19.80;65.10;;;;;;4853279;29;20468;-79
2023/06/28 03:50:03;;;;;;;8.60;8.40;;;19.90;66.20;;;;;;4852229;29;20539;-80
2023/06/28 03:52:31;;;;;;;9.00;8.70;;;19.90;66.20;;;;;;4855040;29;20469;-79
2023/06/28 03:54:59;;;;;;;9.00;8.60;;;19.80;65.90;;;;;;4852692;29;20463;-80
2023/06/28 03:57:27;;;;;;;8.60;8.30;;;19.80;63.10;;;;;;4855292;29;20458;-80
2023/06/28 03:59:57;;;;;;;9.03;8.53;;;19.60;60.80;;;;;;4852021;29;20511;-76
2023/06/28 04:02:25;;;;;;;9.00;8.60;;;19.60;60.80;;;;;;4847843;29;21057;-77
2023/06/28 04:04:54;;;;;;;9.23;8.77;;;19.60;61.70;;;;;;4852338;29;20984;-77
2023/06/28 04:07:24;;;;;;;8.30;8.03;;;19.50;62.30;;;;;;4856526;29;20895;-78
2023/06/28 04:09:53;;;;;;;8.83;8.43;;;19.60;65.80;;;;;;4852293;29;20466;-79
2023/06/28 04:12:21;;;;;;;9.50;9.10;;;19.60;65.40;;;;;;4854988;29;20939;-78
2023/06/28 04:14:50;;;;;;;9.20;8.80;;;19.60;64.00;;;;;;4852002;29;20517;-80
2023/06/28 04:17:19;;;;;;;9.03;8.53;;;19.60;65.80;;;;;;4852135;29;20462;-77
2023/06/28 04:19:47;;;;;;;9.93;9.03;;;19.50;66.30;;;;;;4854826;29;20856;-81
2023/06/28 04:22:15;;;;;;;8.97;8.47;;;19.60;66.80;;;;;;4849911;29;20547;-80
2023/06/28 04:24:43;;;;;;;9.00;8.50;;;19.60;67.60;;;;;;4853765;29;20456;-80
2023/06/28 04:27:11;;;;;;;9.57;8.97;;;19.70;68.60;;;;;;4850242;29;21840;-78
2023/06/28 04:29:40;;;;;;;9.87;9.47;;;19.60;65.50;;;;;;4853830;29;20452;-80
2023/06/28 04:32:25;;;;;;;9.70;9.40;;;19.60;66.50;;;;;;4853611;29;21037;-80
2023/06/28 04:34:55;;;;;;;9.30;8.90;;;19.70;69.80;;;;;;4848452;29;21037;-76
2023/06/28 04:37:27;;;;;;;9.73;9.20;;;19.70;69.20;;;;;;4854315;29;20475;-77
2023/06/28 04:39:55;;;;;;;9.70;9.20;;;19.70;70.60;;;;;;4854295;29;21129;-76
2023/06/28 04:42:24;;;;;;;10.63;10.03;;;19.80;69.70;;;;;;4850932;29;20569;-80
2023/06/28 04:44:54;;;;;;;10.87;9.97;;;19.80;70.30;;;;;;4854847;29;20466;-77
2023/06/28 04:47:26;;;;;;;9.40;9.00;;;19.80;72.90;;;;;;4851914;29;20498;-78
2023/06/28 04:49:55;;;;;;;10.50;9.70;;;19.90;72.60;;;;;;4850754;29;20470;-77
2023/06/28 04:52:23;;;;;;;10.10;9.50;;;19.90;72.10;;;;;;4845697;29;20475;-79
2023/06/28 04:54:51;;;;;;;9.60;9.30;;;19.80;69.90;;;;;;4853212;29;20485;-77
2023/06/28 04:57:20;;;;;;;9.57;9.17;;;19.80;69.30;;;;;;4845466;29;20994;-79
2023/06/28 04:59:49;;;;;;;10.10;9.70;;;19.80;70.90;;;;;;4852588;29;20526;-77
2023/06/28 05:02:17;;;;;;;10.27;9.77;;;19.80;71.10;;;;;;4851714;29;20475;-79
2023/06/28 05:04:47;;;;;;;11.00;10.50;;;19.80;70.80;;;;;;4854681;29;21046;-77
2023/06/28 05:07:17;;;;;;;9.80;9.40;;;19.90;72.60;;;;;;4850364;29;20988;-77
2023/06/28 05:09:47;;;;;;;10.63;10.03;;;19.80;69.80;;;;;;4853971;29;20487;-79
2023/06/28 05:12:15;;;;;;;10.53;10.13;;;19.80;69.10;;;;;;4855808;29;21002;-80
2023/06/28 05:14:43;;;;;;;10.10;9.70;;;19.90;70.40;;;;;;4852997;29;20477;-77
2023/06/28 05:17:11;;;;;;;9.93;9.57;;;19.90;69.10;;;;;;4854920;29;20834;-78
2023/06/28 05:19:39;;;;;;;10.13;9.73;;;19.90;69.00;;;;;;4853992;29;20491;-78
2023/06/28 05:22:09;;;;;;;10.63;10.20;;;19.90;69.20;;;;;;4853976;29;20916;-78
2023/06/28 05:24:37;;;;;;;9.50;9.20;;;19.90;70.30;;;;;;4853174;29;20467;-79
2023/06/28 05:27:05;;;;;;;9.70;9.10;;;19.90;68.60;;;;;;4854557;29;21119;-79
2023/06/28 05:29:34;;;;;;;9.50;9.10;;;20.00;69.80;;;;;;4854892;29;20494;-80
2023/06/28 05:32:02;;;;;;;9.93;9.50;;;20.00;68.60;;;;;;4856556;29;20462;-78
2023/06/28 05:34:30;;;;;;;10.25;9.70;;;20.00;70.70;;;;;;4857180;29;20591;-77
2023/06/28 05:36:59;;;;;;;10.57;9.67;;;20.00;70.00;;;;;;4881353;29;20249;-77
2023/06/28 05:39:28;;;;;;;10.18;9.77;;;20.00;87.00;;;;;;4876129;29;20981;-80
2023/06/28 05:41:56;;;;;;;25.93;10.93;;;19.90;68.30;;;;;;4876531;29;20213;-79
2023/06/28 05:44:24;;;;;;;10.03;9.83;;;20.00;69.70;;;;;;4893555;29;20879;-77
2023/06/28 05:46:53;;;;;;;10.50;10.00;;;20.10;70.20;;;;;;4881268;29;20486;-79
2023/06/28 05:49:21;;;;;;;9.63;9.23;;;20.20;70.80;;;;;;4880466;29;20465;-78
2023/06/28 05:51:49;;;;;;;10.05;9.65;;;20.30;70.10;;;;;;4881125;29;20406;-79
2023/06/28 05:54:17;;;;;;;9.37;8.97;;;20.30;71.50;;;;;;4880937;29;20214;-77
2023/06/28 05:56:47;;;;;;;10.83;10.33;;;20.40;73.30;;;;;;4876245;29;20489;-80
2023/06/28 05:59:15;;;;;;;10.13;9.73;;;20.50;75.50;;;;;;4874598;29;20517;-79
2023/06/28 06:01:43;;;;;;;10.50;10.00;;;20.50;73.80;;;;;;4883460;29;20459;-80
2023/06/28 06:04:11;;;;;;;9.93;9.43;;;20.50;72.60;;;;;;4881178;29;21048;-76
2023/06/28 06:06:39;;;;;;;10.00;9.50;;;20.50;71.80;;;;;;4877835;29;20482;-77
2023/06/28 06:09:07;;;;;;;10.03;9.63;;;20.60;73.90;;;;;;4878584;29;20205;-79
2023/06/28 06:11:36;;;;;;;9.90;9.30;;;20.70;73.10;;;;;;4871653;29;20458;-80
2023/06/28 06:14:05;;;;;;;9.87;9.27;;;20.70;70.20;;;;;;4879303;29;20975;-77
2023/06/28 06:16:34;;;;;;;10.07;9.57;;;20.60;70.30;;;;;;4882377;29;20481;-77
2023/06/28 06:19:02;;;;;;;9.50;9.10;;;20.70;75.50;;;;;;4880064;29;20446;-79
2023/06/28 06:21:30;;;;;;;9.87;9.30;;;20.80;69.90;;;;;;4881988;29;20486;-80
2023/06/28 06:23:59;;;;;;;9.03;8.83;;;20.80;72.40;;;;;;4879968;29;20458;-78
2023/06/28 06:26:28;;;;;;;10.60;9.80;;;20.90;75.70;;;;;;4881103;29;20565;-80
2023/06/28 06:28:56;;;;;;;9.80;9.47;;;21.00;76.80;;;;;;4883081;29;20466;-78
2023/06/28 06:31:26;;;;;;;9.80;9.20;;;21.10;76.80;;;;;;4875967;29;20543;-79
2023/06/28 06:33:56;;;;;;;10.00;9.50;;;21.20;76.80;;;;;;4878522;29;20485;-78
2023/06/28 06:36:24;;;;;;;9.87;9.37;;;21.20;76.90;;;;;;4880550;29;20494;-79
2023/06/28 06:38:52;;;;;;;9.77;9.40;;;21.20;74.90;;;;;;4881201;29;21171;-79
2023/06/28 06:41:22;;;;;;;10.10;9.50;;;21.30;76.20;;;;;;4881671;29;20469;-80
2023/06/28 06:43:52;;;;;;;9.60;9.30;;;21.30;75.50;;;;;;4881371;29;20523;-77
2023/06/28 06:46:21;;;;;;;9.83;9.33;;;21.40;78.20;;;;;;4880525;29;20495;-80
2023/06/28 06:48:50;;;;;;;10.40;10.00;;;21.40;78.40;;;;;;4881696;29;20813;-79
2023/06/28 06:51:18;;;;;;;10.57;9.87;;;21.40;77.30;;;;;;4895797;29;20463;-79
2023/06/28 06:53:46;;;;;;;10.03;9.63;;;21.40;77.30;;;;;;4881098;29;20472;-80
2023/06/28 06:56:21;;;;;;;10.07;9.37;;;21.50;77.00;;;;;;4881212;29;20478;-79
2023/06/28 06:58:50;;;;;;;9.93;9.50;;;21.50;80.20;;;;;;4882007;29;20462;-78
2023/06/28 07:01:18;;;;;;;10.80;10.30;;;21.60;78.50;;;;;;4882970;29;20493;-80
2023/06/28 07:03:46;;;;;;;9.87;9.57;;;21.50;94.10;;;;;;4882031;29;20510;-77
2023/06/28 07:06:16;;;;;;;10.20;9.73;;;21.50;79.50;;;;;;4885174;29;20475;-80
2023/06/28 07:08:46;;;;;;;10.07;9.67;;;21.50;76.70;;;;;;4883658;29;20477;-77
2023/06/28 07:11:15;;;;;;;10.70;10.30;;;21.60;78.90;;;;;;4881694;29;20454;-77
2023/06/28 07:13:43;;;;;;;11.45;10.95;;;21.60;79.60;;;;;;4867186;29;20473;-78
2023/06/28 07:16:11;;;;;;;10.70;10.30;;;21.60;78.10;;;;;;4877765;29;20232;-80
2023/06/28 07:18:39;;;;;;;10.53;10.13;;;21.70;81.80;;;;;;4881126;29;20498;-79
2023/06/28 07:21:08;;;;;;;11.10;10.43;;;21.80;78.60;;;;;;4881880;29;20480;-77
2023/06/28 07:23:37;;;;;;;11.47;10.97;;;21.70;80.00;;;;;;4879549;29;20978;-78
2023/06/28 07:26:05;;;;;;;11.10;10.53;;;21.70;80.10;;;;;;4881552;29;20487;-81
2023/06/28 07:28:33;;;;;;;11.13;10.57;;;21.70;80.70;;;;;;4881241;29;20466;-78
2023/06/28 07:31:02;;;;;;;11.87;11.37;;;21.80;79.70;;;;;;4884020;29;20459;-78
2023/06/28 07:33:30;;;;;;;11.87;11.23;;;21.80;80.70;;;;;;4878870;29;20467;-80
2023/06/28 07:35:58;;;;;;;10.77;10.43;;;21.80;80.40;;;;;;4879850;29;20494;-80
2023/06/28 07:38:26;;;;;;;10.33;10.00;;;21.70;77.60;;;;;;4883858;29;20910;-77
2023/06/28 07:40:55;;;;;;;11.27;10.60;;;21.70;77.10;;;;;;4883264;29;20486;-79
2023/06/28 07:43:24;;;;;;;10.97;10.33;;;21.60;76.90;;;;;;4877956;29;20997;-79
2023/06/28 07:45:53;;;;;;;11.23;10.73;;;21.60;74.50;;;;;;4880847;29;20503;-78
2023/06/28 07:48:22;;;;;;;10.80;10.23;;;21.70;77.60;;;;;;4880186;29;20519;-80
2023/06/28 07:50:50;;;;;;;11.20;10.40;;;21.70;76.50;;;;;;4881358;29;20469;-80
2023/06/28 07:53:18;;;;;;;10.47;10.17;;;21.70;75.40;;;;;;4883715;29;20937;-78
2023/06/28 07:55:50;;;;;;;10.30;10.00;;;21.60;72.80;;;;;;4878116;29;20503;-75
2023/06/28 07:58:24;;;;;;;11.50;10.87;;;21.60;77.80;;;;;;4880398;29;20457;-78
2023/06/28 08:00:53;;;;;;;10.53;10.13;;;21.70;77.40;;;;;;4884912;29;21135;-79
2023/06/28 08:03:23;;;;;;;10.47;10.07;;;21.70;76.70;;;;;;4885915;29;20491;-77
2023/06/28 08:05:52;;;;;;;11.60;11.00;;;21.80;77.50;;;;;;4881942;29;20487;-78
2023/06/28 08:08:20;;;;;;;11.87;11.37;;;21.90;80.30;;;;;;4877914;29;20546;-79
2023/06/28 08:10:51;;;;;;;14.20;10.80;;;21.80;80.00;;;;;;4880957;29;20452;-80
2023/06/28 08:13:26;;;;;;;10.03;9.60;;;21.90;82.10;;;;;;4878781;29;20475;-79
2023/06/28 08:23:36;;;;;;;12.70;11.43;;;21.80;76.60;;;;;;4884048;29;20458;-78
2023/06/28 08:30:12;;;;;;;10.30;9.70;;;21.80;76.60;;;;;;4879037;29;20459;-80
2023/06/28 08:33:22;;;;;;;9.70;9.40;;;21.80;74.40;;;;;;4818894;29;20985;-77
2023/06/28 08:35:51;;;;;;;10.47;10.17;;;21.80;73.70;;;;;;4840042;29;20487;-80
2023/06/28 08:38:20;;;;;;;11.17;10.57;;;21.90;77.90;;;;;;4863095;29;20467;-80
2023/06/28 08:40:53;;;;;;;10.30;9.90;;;21.90;76.20;;;;;;4863581;29;20486;-79
2023/06/28 08:43:22;;;;;;;11.73;11.10;;;21.80;77.00;;;;;;4862375;29;21010;-75
2023/06/28 08:45:51;;;;;;;11.00;10.57;;;21.90;74.10;;;;;;4861317;29;20563;-78
2023/06/28 08:48:20;;;;;;;12.07;11.47;;;21.90;76.80;;;;;;4863089;29;21202;-79
2023/06/28 08:50:58;;;;;;;10.80;10.40;;;22.00;78.30;;;;;;4864894;29;20618;-78
2023/06/28 08:53:29;;;;;;;10.87;10.47;;;22.00;77.70;;;;;;4863675;29;20477;-80
2023/06/28 08:55:59;;;;;;;10.90;10.50;;;22.10;75.80;;;;;;4865279;29;20494;-80
2023/06/28 08:58:29;;;;;;;11.00;10.60;;;22.10;75.20;;;;;;4862905;29;20471;-78
2023/06/28 09:00:59;;;;;;;10.37;9.90;;;22.00;70.90;;;;;;4862020;29;20496;-80
2023/06/28 09:03:31;;;;;;;10.20;9.87;;;22.10;76.20;;;;;;4864620;29;20464;-79
2023/06/28 09:05:59;;;;;;;11.13;10.50;;;22.20;76.20;;;;;;4862615;29;20515;-78
2023/06/28 09:08:28;;;;;;;10.30;9.90;;;22.30;77.80;;;;;;4859307;29;20471;-79
2023/06/28 09:10:57;;;;;;;11.23;10.70;;;22.40;79.60;;;;;;4863419;29;20475;-78
2023/06/28 09:13:25;;;;;;;12.60;11.60;;;22.50;78.30;;;;;;4857609;29;20532;-79
2023/06/28 09:15:54;;;;;;;11.57;10.97;;;22.50;78.30;;;;;;4874167;29;20586;-78
2023/06/28 09:18:23;;;;;;;11.30;10.70;;;22.60;78.90;;;;;;4855637;29;20486;-78
2023/06/28 09:20:54;;;;;;;10.87;10.37;;;22.60;79.10;;;;;;4859535;29;20459;-77
2023/06/28 09:23:26;;;;;;;11.30;10.90;;;22.70;81.40;;;;;;4857985;29;20460;-77
2023/06/28 09:25:55;;;;;;;10.60;10.30;;;22.80;79.30;;;;;;4860903;29;20510;-78
2023/06/28 09:28:24;;;;;;;10.80;10.23;;;22.90;80.20;;;;;;4862913;29;20476;-78
2023/06/28 09:30:53;;;;;;;11.07;10.70;;;23.00;83.70;;;;;;4858740;29;20622;-80
2023/06/28 09:33:22;;;;;;;10.40;9.67;;;23.00;82.00;;;;;;4853295;29;20464;-81
2023/06/28 09:35:55;;;;;;;11.37;10.60;;;22.90;79.20;;;;;;4857902;29;20507;-78
2023/06/28 09:38:24;;;;;;;10.67;10.17;;;22.80;76.70;;;;;;4862060;29;20445;-80
2023/06/28 09:40:56;;;;;;;10.60;10.10;;;22.90;80.60;;;;;;4863936;29;20459;-79
2023/06/28 09:43:25;;;;;;;10.70;10.20;;;23.00;83.50;;;;;;4857997;29;20572;-79
2023/06/28 09:45:54;;;;;;;11.23;10.57;;;23.00;82.10;;;;;;4863066;29;21071;-77
2023/06/28 09:48:24;;;;;;;10.47;10.10;;;23.10;85.40;;;;;;4858328;29;21109;-79
2023/06/28 09:50:56;;;;;;;10.70;10.27;;;23.20;96.20;;;;;;4861537;29;20842;-80
2023/06/28 09:53:26;;;;;;;11.83;10.87;;;23.30;85.70;;;;;;4877785;29;20488;-78
2023/06/28 09:55:58;;;;;;;10.40;10.00;;;23.40;90.20;;;;;;4863199;29;20481;-79
2023/06/28 09:58:30;;;;;;;10.00;9.70;;;23.50;90.00;;;;;;4862425;29;20453;-78
2023/06/28 10:01:00;;;;;;;10.97;10.47;;;23.60;89.10;;;;;;4857345;29;20457;-78
2023/06/28 10:03:30;;;;;;;11.10;10.37;;;23.70;90.40;;;;;;4857367;29;20899;-76
2023/06/28 10:06:00;;;;;;;10.60;10.07;;;23.60;87.30;;;;;;4857054;29;20500;-80
2023/06/28 10:08:30;;;;;;;11.20;10.80;;;23.70;88.30;;;;;;4851480;29;20457;-78
2023/06/28 10:10:58;;;;;;;10.60;10.20;;;23.70;90.30;;;;;;4858465;29;20451;-81
2023/06/28 10:13:27;;;;;;;10.63;10.30;;;23.80;90.00;;;;;;4856839;29;20451;-82
2023/06/28 10:16:00;;;;;;;10.43;10.03;;;23.80;90.30;;;;;;4857413;29;20482;-80
2023/06/28 10:18:30;;;;;;;10.57;10.23;;;23.90;90.20;;;;;;4859481;29;20531;-77
2023/06/28 10:21:01;;;;;;;10.40;9.90;;;23.90;90.90;;;;;;4862477;29;20470;-81
2023/06/28 10:23:35;;;;;;;11.73;10.97;;;24.00;91.00;;;;;;4862956;29;21014;-81
2023/06/28 10:26:04;;;;;;;11.03;10.53;;;23.90;91.00;;;;;;4865624;29;20495;-79
2023/06/28 10:28:34;;;;;;;10.80;10.40;;;24.00;90.60;;;;;;4864536;29;20468;-78
2023/06/28 10:31:04;;;;;;;10.63;10.23;;;24.00;90.20;;;;;;4858798;29;20466;-79
2023/06/28 10:33:33;;;;;;;9.90;9.60;;;24.00;99.40;;;;;;4858814;29;20839;-80
2023/06/28 10:36:03;;;;;;;10.30;9.90;;;24.10;91.30;;;;;;4859356;29;20578;-76
2023/06/28 10:38:33;;;;;;;10.80;10.20;;;24.00;89.50;;;;;;4859987;29;20464;-77
2023/06/28 10:41:02;;;;;;;11.40;10.70;;;24.00;91.10;;;;;;4859046;29;20472;-78
2023/06/28 10:43:31;;;;;;;10.30;9.83;;;24.10;91.00;;;;;;4861159;29;20484;-78
2023/06/28 10:45:59;;;;;;;9.53;9.33;;;24.10;90.20;;;;;;4858684;29;20483;-78
2023/06/28 10:48:29;;;;;;;10.07;9.47;;;24.10;90.80;;;;;;4858622;29;20467;-81
2023/06/28 10:51:00;;;;;;;9.90;9.50;;;24.10;90.40;;;;;;4864358;29;20459;-80
2023/06/28 10:53:30;;;;;;;10.13;9.73;;;24.10;91.00;;;;;;4859976;29;20524;-80
2023/06/28 10:56:07;;;;;;;10.93;10.43;;;24.20;90.00;;;;;;4863619;29;20491;-78
2023/06/28 10:58:39;;;;;;;10.57;10.27;;;24.10;90.50;;;;;;4864108;29;21014;-81
2023/06/28 11:01:09;;;;;;;12.13;10.93;;;24.10;91.00;;;;;;4865862;29;21048;-79
2023/06/28 11:03:41;;;;;;;10.40;10.10;;;24.20;91.00;;;;;;4861943;29;20517;-80
2023/06/28 11:06:11;;;;;;;10.60;10.17;;;24.30;91.30;;;;;;4864123;29;20488;-79
2023/06/28 11:08:42;;;;;;;10.40;10.03;;;24.30;92.10;;;;;;4862586;29;20630;-78
2023/06/28 11:11:12;;;;;;;10.70;10.40;;;24.30;90.00;;;;;;4865241;29;20465;-80
2023/06/28 11:13:48;;;;;;;10.90;10.50;;;24.40;91.00;;;;;;4858860;29;20463;-78
2023/06/28 11:16:21;;;;;;;10.13;9.63;;;24.40;92.10;;;;;;4864065;29;20497;-79
2023/06/28 11:18:51;;;;;;;10.40;10.00;;;24.20;88.70;;;;;;4865273;29;20482;-79
2023/06/28 11:21:23;;;;;;;11.13;10.83;;;24.30;90.40;;;;;;4848216;29;20493;-78
2023/06/28 11:23:56;;;;;;;10.00;9.50;;;24.40;99.90;;;;;;4854410;29;20510;-77
2023/06/28 11:26:35;;;;;;;10.30;9.70;;;24.60;91.80;;;;;;4857986;29;20492;-81
2023/06/28 11:29:17;;;;;;;10.33;9.93;;;24.50;89.60;;;;;;4867998;29;20461;-79
2023/06/28 11:31:52;;;;;;;10.10;9.63;;;24.40;89.60;;;;;;4860010;29;20993;-79
2023/06/28 11:34:22;;;;;;;10.30;9.90;;;24.40;90.20;;;;;;4859776;29;20476;-80
2023/06/28 11:36:52;;;;;;;10.00;9.50;;;24.40;90.60;;;;;;4856944;29;20476;-77
2023/06/28 11:39:32;;;;;;;10.47;9.93;;;24.50;91.10;;;;;;4858933;29;20562;-78
2023/06/28 11:42:04;;;;;;;10.10;9.60;;;24.40;90.00;;;;;;4859081;29;20503;-79
2023/06/28 11:44:45;;;;;;;10.07;9.77;;;24.20;85.10;;;;;;4860818;29;20460;-79
2023/06/28 11:47:16;;;;;;;10.10;9.70;;;24.30;87.00;;;;;;4857636;29;20705;-79
2023/06/28 11:49:50;;;;;;;10.40;10.03;;;24.40;88.10;;;;;;4860057;29;20476;-76
2023/06/28 11:52:20;;;;;;;10.47;9.87;;;24.40;89.00;;;;;;4861739;29;20460;-76
2023/06/28 11:54:55;;;;;;;10.80;10.23;;;24.40;88.60;;;;;;4859246;29;20451;-77
2023/06/28 11:57:23;;;;;;;10.03;9.63;;;24.50;88.30;;;;;;4860627;29;20566;-79
2023/06/28 11:59:52;;;;;;;11.23;10.50;;;24.50;89.90;;;;;;4862353;29;20460;-78
2023/06/28 12:02:24;;;;;;;10.30;10.10;;;24.50;90.10;;;;;;4863453;29;20472;-78
2023/06/28 12:04:57;;;;;;;10.07;9.67;;;24.50;92.40;;;;;;4858823;29;20829;-77
2023/06/28 12:07:25;;;;;;;9.50;9.20;;;24.40;88.00;;;;;;4861247;29;20532;-82
2023/06/28 12:09:59;;;;;;;10.00;9.70;;;24.40;85.10;;;;;;4858587;29;20468;-77
2023/06/28 12:12:38;;;;;;;9.90;9.60;;;24.40;89.50;;;;;;4861472;29;20471;-80
2023/06/28 12:15:16;;;;;;;10.50;9.90;;;24.40;88.10;;;;;;4854965;29;20503;-77
2023/06/28 12:17:52;;;;;;;9.97;9.57;;;24.50;85.70;;;;;;4863591;29;20606;-81
2023/06/28 12:20:26;;;;;;;10.07;9.67;;;24.50;88.60;;;;;;4874996;29;20465;-78
2023/06/28 12:22:57;;;;;;;9.60;9.23;;;24.50;90.90;;;;;;4865212;29;20488;-76
2023/06/28 12:25:30;;;;;;;9.80;9.40;;;24.60;91.10;;;;;;4859082;29;20487;-78
2023/06/28 12:28:03;;;;;;;9.40;9.20;;;24.60;87.90;;;;;;4862566;29;20506;-80
2023/06/28 12:30:35;;;;;;;9.67;9.30;;;24.60;87.60;;;;;;4859973;29;20497;-79
2023/06/28 12:33:10;;;;;;;9.07;8.77;;;24.60;89.90;;;;;;4859033;29;20469;-78
2023/06/28 13:00:48;;;;;;;9.60;9.20;;;24.60;87.10;;;;;;4833940;29;20526;-77
2023/06/28 13:07:55;;;;;;;9.10;8.90;;;24.80;89.60;;;;;;4861312;29;21029;-77
2023/06/28 13:10:26;;;;;;;9.60;9.30;;;24.90;91.40;;;;;;4858757;29;21150;-81
2023/06/28 13:12:54;;;;;;;9.40;9.00;;;24.90;87.30;;;;;;4873647;29;20293;-81
2023/06/28 13:15:25;;;;;;;9.90;9.40;;;25.00;88.50;;;;;;4874947;29;20475;-83
2023/06/28 13:17:54;;;;;;;9.90;9.60;;;24.90;85.20;;;;;;4867679;29;20886;-82
2023/06/28 13:20:33;;;;;;;10.23;9.53;;;24.80;84.70;;;;;;4870542;29;20470;-82
2023/06/28 13:23:53;;;;;;;10.63;10.23;;;24.80;84.50;;;;;;4875831;29;20515;-81
2023/06/28 13:42:46;;;;;;;10.33;9.90;;;25.00;89.30;;;;;;4867821;29;20495;-82
2023/06/28 13:45:31;;;;;;;9.93;9.53;;;25.10;88.30;;;;;;4870529;29;20566;-82
2023/06/28 13:56:00;;;;;;;9.73;9.30;;;25.20;89.60;;;;;;4991480;23;20547;-82
2023/06/28 13:59:23;;;;;;;9.60;9.37;;;25.20;90.60;;;;;;4884975;29;20669;-84